Hlavní strana
METAR-TAF:

METAR-TAF

Letiště :

Kitakjúšú, Japonsko

zeměpisná šířka: 33-50N, zeměpisná délka: 130-57E, výška: 3 m

Aktuální stav počasí

Zpráva byla vytvořena před 1 hodinou a 5 minutami, v 09:00 UTC
Jihojihovýchodní vítr 4 kt
Teplota 11°C
Vlhkost vzduchu 71%
Tlak 1024 hPa
Viditelnost 10 km a více
Skoro jasno ve výšce 4000 ft
Oblačno až skoro zataženo

METAR: RJFR 240900Z 15004KT 9999 FEW040 BKN/// 11/06 Q1024

Čas: 19:05 (10:05 UTC)

Předpověď počasí

Zpráva byla vytvořena před 4 hodinami a 59 minutami, v 05:06 UTC
Předpověď platná od 24 v 06 UTC do 25 v 12 UTC
Severoseverozápadní vítr 7 kt
Viditelnost 10 km a více
Skoro jasno ve výšce 4000 ft
Změna
od 24 v 09 UTC do 24 v 11 UTC
Jihojihozápadní vítr 8 kt

TAF: RJFR 240506Z 2406/2512 33007KT 9999 FEW040 BECMG 2409/2411 20008KT

Stav a předpovědi počasí z více než 4 000 letišť (zprávy METAR a TAF).

Červené a žluté tečky na mapě představují dostupné meteorologické stanice.

Když kurzor umístíte na tečku, zobrazí se název stanice.

Pak kliknutím zobrazíte stav a předpověď počasí.

Chcete-li změnit mapu, kliknutím na zelené tlačítko se znaménkem +mapu přiblížíte, kliknutím na zelené tlačítko se znaménkem – mapu oddálíte a kliknutím na zelené šipky přejdete na sousední mapy.


METAR-TAF: